SDM weather

Brown Field Municipal Airport
San Diego, California, United States

Public forecast

Using degrees Fahrenheit for public forecast. Weather courtesy of forecast.io.

Current aviation weather report (METAR) for Brown Field Municipal Airport

Retrieved 2020/03/31 21:53 UTC (50 minutes ago):

KSDM 312153Z 27006KT 10SM CLR 19/12 A2996 RMK AO2 SLP144 T01890117

Closest aviation forecast (TAF) to Brown Field Municipal Airport

Closest forecast is General Abelardo L. Rodríguez International Airport, 1.9 nm (3.6 km) SSE. Retrieved 2020/03/31 18:22 UTC (4 hours ago):

TAF MMTJ 311615Z 3118/0124 30008KT P6SM OVC180 TX19/3119Z TN11/0114Z FM010400 00000KT 6SM HZ SCT015 BKN180 TEMPO 0112/0116 4SM HZ BKN010 FM011800 20008KT 6SM HZ SCT020 SCT200 BECMG 0121/0122 20012KT BKN015